createdAt,value
2023-01-20T00:01:46.708Z,1.61
2023-01-20T00:04:19.145Z,1.60
2023-01-20T00:06:48.082Z,1.60
2023-01-20T00:09:17.607Z,1.57
2023-01-20T00:11:46.664Z,1.55
2023-01-20T00:14:15.585Z,1.54
2023-01-20T00:16:43.836Z,1.53
2023-01-20T00:19:15.153Z,1.54
2023-01-20T00:21:43.851Z,1.54
2023-01-20T00:24:12.099Z,1.53
2023-01-20T00:26:40.445Z,1.50
2023-01-20T00:29:09.383Z,1.49
2023-01-20T00:31:37.900Z,1.43
2023-01-20T00:34:06.203Z,1.47
2023-01-20T00:36:34.483Z,1.47
2023-01-20T00:39:03.719Z,1.47
2023-01-20T00:41:32.308Z,1.50
2023-01-20T00:44:00.680Z,1.53
2023-01-20T00:46:29.048Z,1.54
2023-01-20T00:48:57.431Z,1.52
2023-01-20T00:51:25.744Z,1.53
2023-01-20T00:53:54.229Z,1.51
2023-01-20T00:56:22.732Z,1.49
2023-01-20T00:58:51.407Z,1.45
2023-01-20T01:01:19.844Z,1.41
2023-01-20T01:03:48.418Z,1.39
2023-01-20T01:07:06.384Z,1.38
2023-01-20T01:09:34.898Z,1.36
2023-01-20T01:12:03.380Z,1.35
2023-01-20T01:14:32.714Z,1.32
2023-01-20T01:17:01.250Z,1.31
2023-01-20T01:19:29.690Z,1.33
2023-01-20T01:21:58.378Z,1.35
2023-01-20T01:24:26.843Z,1.36
2023-01-20T01:26:55.275Z,1.29
2023-01-20T01:29:23.715Z,1.23
2023-01-20T01:31:52.087Z,1.20
2023-01-20T01:34:21.042Z,1.18
2023-01-20T01:36:49.896Z,1.17
2023-01-20T01:39:18.541Z,1.18
2023-01-20T01:41:47.295Z,1.19
2023-01-20T01:44:17.048Z,1.20
2023-01-20T01:46:45.567Z,1.21
2023-01-20T01:49:16.661Z,1.16
2023-01-20T01:51:53.961Z,1.00
2023-01-20T01:54:26.279Z,0.90
2023-01-20T01:56:54.865Z,0.89
2023-01-20T01:59:23.551Z,0.90
2023-01-20T02:01:53.961Z,0.91
2023-01-20T02:04:26.218Z,0.95
2023-01-20T02:07:10.541Z,0.99
2023-01-20T02:09:39.938Z,0.99
2023-01-20T02:12:13.203Z,1.00
2023-01-20T02:14:54.481Z,1.04
2023-01-20T02:18:06.524Z,1.05
2023-01-20T02:20:35.303Z,1.07
2023-01-20T02:23:35.685Z,1.04
2023-01-20T02:26:34.723Z,0.97
2023-01-20T02:29:34.265Z,0.96
2023-01-20T02:32:14.393Z,0.98
2023-01-20T02:35:02.134Z,1.03
2023-01-20T02:37:42.289Z,1.09
2023-01-20T02:40:11.206Z,1.15
2023-01-20T02:42:59.722Z,1.18
2023-01-20T02:45:45.863Z,1.22
2023-01-20T02:48:14.400Z,1.24
2023-01-20T02:50:54.205Z,1.25
2023-01-20T02:53:26.520Z,1.26
2023-01-20T02:55:56.043Z,1.25
2023-01-20T02:58:40.203Z,1.25
2023-01-20T03:01:17.366Z,1.26
2023-01-20T03:03:50.347Z,1.28
2023-01-20T03:06:24.506Z,1.30
2023-01-20T03:08:53.640Z,1.32
2023-01-20T03:11:22.216Z,1.35
2023-01-20T03:13:58.288Z,1.37
2023-01-20T03:16:28.928Z,1.40
2023-01-20T03:18:57.755Z,1.41
2023-01-20T03:21:27.381Z,1.44
2023-01-20T03:24:01.229Z,1.46
2023-01-20T03:26:31.088Z,1.48
2023-01-20T03:29:03.101Z,1.48
2023-01-20T03:31:37.104Z,1.46
2023-01-20T03:34:13.101Z,1.37
2023-01-20T03:36:44.025Z,1.38
2023-01-20T03:39:13.380Z,1.39
2023-01-20T03:41:59.879Z,1.38
2023-01-20T03:45:07.443Z,1.37
2023-01-20T03:47:54.003Z,1.32
2023-01-20T03:50:50.309Z,1.27
2023-01-20T03:53:45.734Z,1.22
2023-01-20T03:56:43.303Z,1.17
2023-01-20T03:59:14.776Z,1.14
2023-01-20T04:01:45.080Z,1.11
2023-01-20T04:04:18.390Z,1.08
2023-01-20T04:06:49.878Z,1.05
2023-01-20T04:09:25.153Z,1.02
2023-01-20T04:11:53.839Z,0.97
2023-01-20T04:14:22.137Z,0.95
2023-01-20T04:16:56.977Z,0.93
2023-01-20T04:19:26.350Z,0.91
2023-01-20T04:22:07.976Z,0.90
2023-01-20T04:24:53.756Z,0.89
2023-01-20T04:27:21.930Z,0.89
2023-01-20T04:29:50.139Z,0.87
2023-01-20T04:32:18.509Z,0.83
2023-01-20T04:34:46.892Z,0.81
2023-01-20T04:37:15.143Z,0.78
2023-01-20T04:39:43.430Z,0.74
2023-01-20T04:42:12.027Z,0.72
2023-01-20T04:44:40.263Z,0.70
2023-01-20T04:47:08.642Z,0.66
2023-01-20T04:49:37.609Z,0.59
2023-01-20T04:52:06.614Z,0.60
2023-01-20T04:54:34.881Z,0.58
2023-01-20T04:57:03.158Z,0.56
2023-01-20T04:59:31.543Z,0.56
2023-01-20T05:01:59.959Z,0.54
2023-01-20T05:04:28.472Z,0.54
2023-01-20T05:06:56.911Z,0.54
2023-01-20T05:09:25.177Z,0.51
2023-01-20T05:11:53.534Z,0.56
2023-01-20T05:14:21.784Z,0.56
2023-01-20T05:16:50.162Z,0.54
2023-01-20T05:19:18.654Z,0.50
2023-01-20T05:21:47.529Z,0.48
2023-01-20T05:24:15.785Z,0.46
2023-01-20T05:26:44.409Z,0.49
2023-01-20T05:29:12.678Z,0.51
2023-01-20T05:31:43.708Z,0.57
2023-01-20T05:34:12.243Z,0.60
2023-01-20T05:36:40.627Z,0.62
2023-01-20T05:39:09.299Z,0.65
2023-01-20T05:41:38.326Z,0.67
2023-01-20T05:44:07.218Z,0.71
2023-01-20T05:46:35.555Z,0.74
2023-01-20T05:49:03.902Z,0.76
2023-01-20T05:51:32.802Z,0.78
2023-01-20T05:54:01.253Z,0.80
2023-01-20T05:56:29.741Z,0.82
2023-01-20T05:58:58.283Z,0.83
2023-01-20T06:01:27.769Z,0.80
2023-01-20T06:03:56.122Z,0.88
2023-01-20T06:06:25.051Z,0.89
2023-01-20T06:08:53.802Z,0.90
2023-01-20T06:11:22.977Z,0.89
2023-01-20T06:13:51.279Z,0.86
2023-01-20T06:16:19.651Z,0.84
2023-01-20T06:18:47.977Z,0.82
2023-01-20T06:21:16.437Z,0.78
2023-01-20T06:23:44.859Z,0.77
2023-01-20T06:26:14.190Z,0.77
2023-01-20T06:28:42.665Z,0.79
2023-01-20T06:31:16.117Z,0.83
2023-01-20T06:33:44.958Z,0.84
2023-01-20T06:36:15.963Z,0.75
2023-01-20T06:38:48.590Z,0.62
2023-01-20T06:41:19.214Z,0.54
2023-01-20T06:43:47.856Z,0.51
2023-01-20T06:46:16.395Z,0.44
2023-01-20T06:48:46.123Z,0.39
2023-01-20T06:51:20.367Z,0.34
2023-01-20T06:53:48.976Z,0.30
2023-01-20T06:56:17.357Z,0.26
2023-01-20T06:58:46.368Z,0.27
2023-01-20T07:01:24.514Z,0.28
2023-01-20T07:03:53.473Z,0.25
2023-01-20T07:06:24.780Z,0.27
2023-01-20T07:08:53.065Z,0.26
2023-01-20T07:11:21.455Z,0.22
2023-01-20T07:13:49.944Z,0.19
2023-01-20T07:16:18.389Z,0.14
2023-01-20T07:18:51.549Z,0.11
2023-01-20T07:21:20.533Z,0.09
2023-01-20T07:23:49.237Z,0.10
2023-01-20T07:26:22.820Z,0.11
2023-01-20T07:28:52.163Z,0.12
2023-01-20T07:31:26.321Z,0.15
2023-01-20T07:33:56.735Z,0.20
2023-01-20T07:36:25.054Z,0.24
2023-01-20T07:38:53.851Z,0.29
2023-01-20T07:41:22.966Z,0.36
2023-01-20T07:43:52.698Z,0.40
2023-01-20T07:46:21.462Z,0.50
2023-01-20T07:48:49.715Z,0.58
2023-01-20T07:51:18.515Z,0.65
2023-01-20T07:53:51.774Z,0.72
2023-01-20T07:56:23.483Z,0.79
2023-01-20T07:58:53.861Z,0.87
2023-01-20T08:01:31.164Z,0.96
2023-01-20T08:04:00.810Z,1.03
2023-01-20T08:06:30.160Z,1.08
2023-01-20T08:09:02.391Z,1.13
2023-01-20T08:11:32.474Z,1.16
2023-01-20T08:14:00.663Z,1.21
2023-01-20T08:16:28.865Z,1.25
2023-01-20T08:18:57.235Z,1.32
2023-01-20T08:21:28.022Z,1.36
2023-01-20T08:23:58.236Z,1.37
2023-01-20T08:26:29.580Z,1.31
2023-01-20T08:29:06.912Z,1.28
2023-01-20T08:31:36.075Z,1.34
2023-01-20T08:34:05.237Z,1.43
2023-01-20T08:36:36.742Z,1.53
2023-01-20T08:39:08.926Z,1.65
2023-01-20T08:41:41.885Z,1.76
2023-01-20T08:44:11.377Z,1.85
2023-01-20T08:46:41.859Z,1.94
2023-01-20T08:49:13.862Z,2.03
2023-01-20T08:51:43.618Z,2.11
2023-01-20T08:54:12.206Z,2.18
2023-01-20T08:56:40.445Z,2.27
2023-01-20T08:59:08.771Z,2.37
2023-01-20T09:01:38.225Z,2.46
2023-01-20T09:04:07.797Z,2.55
2023-01-20T09:06:47.186Z,2.66
2023-01-20T09:09:17.604Z,2.75
2023-01-20T09:11:50.886Z,2.85
2023-01-20T09:14:24.568Z,2.95
2023-01-20T09:16:52.888Z,2.98
2023-01-20T09:19:21.694Z,3.11
2023-01-20T09:21:50.055Z,3.21
2023-01-20T09:24:18.350Z,3.32
2023-01-20T09:26:48.707Z,3.40
2023-01-20T09:29:19.122Z,3.49
2023-01-20T09:32:02.068Z,3.50
2023-01-20T09:34:31.155Z,3.60
2023-01-20T09:37:21.766Z,3.65
2023-01-20T09:40:08.924Z,3.69
2023-01-20T09:43:29.671Z,3.71
2023-01-20T09:46:09.393Z,3.77
2023-01-20T09:49:32.760Z,3.83
2023-01-20T09:52:36.018Z,3.91
2023-01-20T09:55:16.847Z,4.00
2023-01-20T09:57:52.485Z,4.02
2023-01-20T10:00:23.776Z,4.15
2023-01-20T10:03:00.554Z,4.20
2023-01-20T10:05:37.625Z,4.23
2023-01-20T10:08:24.600Z,4.26
2023-01-20T10:11:01.751Z,4.28
2023-01-20T10:13:36.494Z,4.28
2023-01-20T10:16:10.102Z,4.29
2023-01-20T10:18:51.964Z,4.30
2023-01-20T10:21:32.668Z,4.28
2023-01-20T10:24:10.322Z,4.22
2023-01-20T10:27:04.547Z,4.26
2023-01-20T10:29:49.706Z,4.28
2023-01-20T10:32:39.518Z,4.33
2023-01-20T10:35:31.996Z,4.40
2023-01-20T10:38:00.865Z,4.41
2023-01-20T10:40:39.526Z,4.42
2023-01-20T10:43:14.262Z,4.36
2023-01-20T10:45:54.619Z,4.27
2023-01-20T10:48:50.213Z,4.20
2023-01-20T10:51:36.757Z,4.12
2023-01-20T10:54:13.883Z,4.07
2023-01-20T10:56:53.629Z,4.04
2023-01-20T10:59:39.952Z,4.04
2023-01-20T11:02:29.628Z,4.10
2023-01-20T11:05:01.276Z,4.08
2023-01-20T11:07:32.904Z,4.04
2023-01-20T11:10:19.292Z,4.05
2023-01-20T11:12:51.563Z,4.08
2023-01-20T11:15:28.109Z,4.12
2023-01-20T11:18:14.570Z,4.19
2023-01-20T11:20:52.417Z,4.26
2023-01-20T11:23:38.101Z,4.26
2023-01-20T11:26:29.063Z,4.28
2023-01-20T11:29:30.708Z,4.31
2023-01-20T11:31:59.875Z,4.33
2023-01-20T11:34:36.371Z,4.34
2023-01-20T11:37:25.740Z,4.44
2023-01-20T11:40:16.914Z,4.45
2023-01-20T11:42:47.781Z,4.40
2023-01-20T11:45:36.665Z,4.38
2023-01-20T11:48:06.908Z,4.44
2023-01-20T11:50:36.933Z,4.44
2023-01-20T11:53:13.015Z,4.36
2023-01-20T11:55:48.547Z,4.39
2023-01-20T11:58:20.354Z,4.38
2023-01-20T12:00:51.516Z,4.33
2023-01-20T12:03:50.127Z,4.28
2023-01-20T12:06:29.551Z,4.13
2023-01-20T12:09:03.025Z,4.19
2023-01-20T12:11:38.862Z,4.14
2023-01-20T12:14:39.381Z,4.09
2023-01-20T12:17:29.767Z,4.08
2023-01-20T12:20:05.934Z,4.10
2023-01-20T12:22:37.256Z,4.07
2023-01-20T12:25:32.006Z,4.07
2023-01-20T12:28:12.890Z,4.05
2023-01-20T12:30:53.203Z,3.99
2023-01-20T12:33:35.880Z,3.92
2023-01-20T12:36:17.236Z,3.88
2023-01-20T12:38:57.843Z,3.83
2023-01-20T12:41:46.784Z,3.78
2023-01-20T12:44:45.006Z,3.73
2023-01-20T12:47:17.402Z,3.72
2023-01-20T12:50:10.175Z,3.69
2023-01-20T12:53:16.995Z,3.76
2023-01-20T12:56:04.888Z,3.82
2023-01-20T12:58:40.587Z,3.85
2023-01-20T13:01:31.601Z,3.83
2023-01-20T13:04:23.331Z,3.74
2023-01-20T13:07:04.553Z,3.77
2023-01-20T13:09:51.153Z,3.83
2023-01-20T13:12:37.854Z,3.88
2023-01-20T13:15:25.893Z,3.95
2023-01-20T13:18:19.240Z,3.85
2023-01-20T13:20:48.722Z,3.86
2023-01-20T13:23:23.871Z,3.79
2023-01-20T13:25:53.735Z,3.74
2023-01-20T13:28:26.030Z,3.69
2023-01-20T13:30:57.589Z,3.64
2023-01-20T13:33:32.367Z,3.61
2023-01-20T13:36:27.256Z,3.59
2023-01-20T13:39:29.713Z,3.48
2023-01-20T13:41:58.317Z,3.45
2023-01-20T13:44:42.418Z,3.39
2023-01-20T13:47:12.406Z,3.34
2023-01-20T13:49:45.955Z,3.32
2023-01-20T13:52:14.926Z,3.29
2023-01-20T13:54:45.463Z,3.27
2023-01-20T13:57:28.089Z,3.28
2023-01-20T13:59:56.963Z,3.30
2023-01-20T14:02:28.952Z,3.30
2023-01-20T14:04:59.073Z,3.33
2023-01-20T14:07:31.364Z,3.35
2023-01-20T14:10:01.491Z,3.41
2023-01-20T14:12:29.979Z,3.48
2023-01-20T14:14:58.453Z,3.50
2023-01-20T14:17:26.758Z,3.50
2023-01-20T14:19:56.236Z,3.49
2023-01-20T14:22:26.624Z,3.49
2023-01-20T14:24:57.617Z,3.51
2023-01-20T14:27:35.587Z,3.51
2023-01-20T14:30:33.222Z,3.52
2023-01-20T14:33:08.463Z,3.50
2023-01-20T14:35:36.932Z,3.45
2023-01-20T14:38:05.203Z,3.40
2023-01-20T14:40:36.004Z,3.38
2023-01-20T14:43:24.562Z,3.37
2023-01-20T14:45:53.752Z,3.36
2023-01-20T14:48:33.819Z,3.35
2023-01-20T14:51:04.539Z,3.36
2023-01-20T14:53:33.186Z,3.38
2023-01-20T14:56:07.884Z,3.39
2023-01-20T14:58:44.786Z,3.35
2023-01-20T15:01:22.989Z,3.32
2023-01-20T15:03:59.809Z,3.28
2023-01-20T15:06:28.968Z,3.22
2023-01-20T15:09:06.723Z,3.16
2023-01-20T15:11:36.651Z,3.12
2023-01-20T15:14:08.800Z,3.08
2023-01-20T15:16:37.139Z,3.05
2023-01-20T15:19:15.487Z,3.02
2023-01-20T15:21:46.271Z,2.95
2023-01-20T15:24:31.833Z,2.92
2023-01-20T15:27:01.944Z,2.85
2023-01-20T15:29:32.966Z,2.78
2023-01-20T15:32:04.966Z,2.71
2023-01-20T15:34:33.625Z,2.68
2023-01-20T15:37:01.882Z,2.66
2023-01-20T15:39:30.998Z,2.63
2023-01-20T15:42:00.036Z,2.55
2023-01-20T15:44:28.881Z,2.56
2023-01-20T15:46:57.888Z,2.50
2023-01-20T15:49:26.425Z,2.47
2023-01-20T15:51:54.869Z,2.43
2023-01-20T15:54:23.116Z,2.41
2023-01-20T15:56:51.425Z,2.35
2023-01-20T15:59:23.656Z,2.32
2023-01-20T16:01:52.193Z,2.29
2023-01-20T16:04:21.467Z,2.25
2023-01-20T16:06:49.928Z,2.22
2023-01-20T16:09:25.878Z,2.13
2023-01-20T16:11:54.683Z,2.16
2023-01-20T16:14:23.443Z,2.13
2023-01-20T16:16:52.057Z,2.10
2023-01-20T16:19:20.969Z,2.06
2023-01-20T16:21:49.311Z,2.05
2023-01-20T16:24:17.825Z,2.03
2023-01-20T16:26:47.433Z,2.02
2023-01-20T16:29:16.781Z,2.02
2023-01-20T16:31:45.351Z,1.99
2023-01-20T16:34:13.743Z,1.96
2023-01-20T16:36:42.125Z,1.94
2023-01-20T16:39:11.214Z,1.91
2023-01-20T16:41:39.826Z,1.90
2023-01-20T16:44:09.938Z,1.85
2023-01-20T16:46:39.470Z,1.86
2023-01-20T16:49:08.088Z,1.84
2023-01-20T16:51:36.525Z,1.81
2023-01-20T16:54:05.233Z,1.82
2023-01-20T16:56:34.322Z,1.81
2023-01-20T16:59:03.370Z,1.81
2023-01-20T17:01:32.332Z,1.80
2023-01-20T17:04:02.956Z,1.80
2023-01-20T17:06:34.870Z,1.82
2023-01-20T17:09:05.771Z,1.82
2023-01-20T17:11:37.346Z,1.85
2023-01-20T17:14:08.541Z,1.89
2023-01-20T17:16:38.918Z,1.93
2023-01-20T17:19:07.922Z,1.95
2023-01-20T17:21:38.770Z,1.94
2023-01-20T17:24:08.157Z,1.94
2023-01-20T17:26:38.587Z,1.95
2023-01-20T17:29:08.775Z,1.95
2023-01-20T17:31:37.642Z,1.94
2023-01-20T17:34:07.466Z,1.94
2023-01-20T17:36:36.227Z,1.93
2023-01-20T17:39:06.336Z,1.86
2023-01-20T17:41:35.261Z,1.90
2023-01-20T17:44:06.744Z,1.90
2023-01-20T17:46:35.608Z,1.88
2023-01-20T17:49:08.431Z,1.88
2023-01-20T17:51:39.708Z,1.89
2023-01-20T17:54:09.858Z,1.90
2023-01-20T17:56:39.173Z,1.89
2023-01-20T17:59:08.594Z,1.95
2023-01-20T18:01:38.064Z,1.98
2023-01-20T18:04:10.938Z,1.91
2023-01-20T18:06:40.071Z,2.03
2023-01-20T18:09:09.475Z,2.07
2023-01-20T18:11:38.928Z,2.10
2023-01-20T18:14:08.431Z,2.14
2023-01-20T18:16:39.956Z,2.17
2023-01-20T18:19:14.275Z,2.20
2023-01-20T18:21:44.476Z,2.23
2023-01-20T18:24:13.594Z,2.26
2023-01-20T18:26:45.828Z,2.29
2023-01-20T18:29:17.717Z,2.31
2023-01-20T18:31:48.310Z,2.28
2023-01-20T18:34:18.428Z,2.26
2023-01-20T18:36:49.399Z,2.25
2023-01-20T18:39:22.457Z,2.27
2023-01-20T18:41:51.974Z,2.32
2023-01-20T18:44:21.425Z,2.35
2023-01-20T18:46:50.629Z,2.39
2023-01-20T18:49:20.090Z,2.30
2023-01-20T18:51:49.752Z,2.42
2023-01-20T18:54:25.283Z,2.41
2023-01-20T18:56:54.699Z,2.41
2023-01-20T18:59:24.767Z,2.32
2023-01-20T19:01:56.859Z,2.32
2023-01-20T19:04:26.217Z,2.29
2023-01-20T19:06:55.303Z,2.28
2023-01-20T19:09:24.496Z,2.18
2023-01-20T19:11:53.541Z,2.16
2023-01-20T19:14:22.212Z,2.19
2023-01-20T19:16:52.436Z,2.17
2023-01-20T19:19:21.459Z,2.12
2023-01-20T19:21:52.334Z,2.09
2023-01-20T19:24:22.144Z,2.05
2023-01-20T19:26:50.958Z,2.00
2023-01-20T19:29:20.056Z,1.95
2023-01-20T19:31:49.336Z,1.92
2023-01-20T19:34:18.202Z,1.87
2023-01-20T19:36:47.137Z,1.87
2023-01-20T19:39:16.383Z,1.86
2023-01-20T19:41:45.245Z,1.84
2023-01-20T19:44:16.185Z,1.85
2023-01-20T19:46:45.579Z,1.78
2023-01-20T19:49:14.364Z,1.81
2023-01-20T19:51:43.539Z,1.79
2023-01-20T19:54:14.211Z,1.77
2023-01-20T19:56:43.139Z,1.74
2023-01-20T19:59:14.867Z,1.67
2023-01-20T20:01:44.207Z,1.72
2023-01-20T20:04:13.403Z,1.68
2023-01-20T20:06:48.044Z,1.66
2023-01-20T20:09:20.808Z,1.60
2023-01-20T20:11:50.924Z,1.57
2023-01-20T20:14:23.473Z,1.54
2023-01-20T20:16:52.865Z,1.52
2023-01-20T20:19:22.087Z,1.52
2023-01-20T20:21:50.804Z,1.53
2023-01-20T20:24:20.091Z,1.53
2023-01-20T20:26:49.380Z,1.51
2023-01-20T20:29:19.698Z,1.51
2023-01-20T20:31:49.770Z,1.49
2023-01-20T20:34:20.334Z,1.47
2023-01-20T20:36:49.388Z,1.39
2023-01-20T20:39:19.157Z,1.42
2023-01-20T20:41:48.581Z,1.40
2023-01-20T20:44:17.814Z,1.40
2023-01-20T20:46:47.048Z,1.37
2023-01-20T20:49:17.122Z,1.33
2023-01-20T20:51:46.984Z,1.29
2023-01-20T20:54:17.408Z,1.26
2023-01-20T20:56:46.671Z,1.23
2023-01-20T20:59:16.364Z,1.24
2023-01-20T21:01:45.927Z,1.25
2023-01-20T21:04:15.867Z,1.27
2023-01-20T21:06:46.646Z,1.28
2023-01-20T21:09:16.625Z,1.25
2023-01-20T21:11:48.282Z,1.28
2023-01-20T21:14:19.607Z,1.27
2023-01-20T21:16:49.083Z,1.26
2023-01-20T21:19:17.897Z,1.25
2023-01-20T21:21:47.084Z,1.25
2023-01-20T21:24:16.153Z,1.23
2023-01-20T21:26:46.720Z,1.19
2023-01-20T21:29:16.904Z,1.14
2023-01-20T21:31:47.104Z,1.12
2023-01-20T21:34:17.195Z,1.11
2023-01-20T21:36:48.111Z,1.14
2023-01-20T21:39:20.114Z,1.15
2023-01-20T21:41:49.089Z,1.11
2023-01-20T21:44:29.586Z,1.07
2023-01-20T21:47:04.558Z,1.03
2023-01-20T21:49:53.466Z,1.01
2023-01-20T21:52:44.332Z,0.96
2023-01-20T21:55:19.242Z,0.93
2023-01-20T21:57:51.439Z,0.89
2023-01-20T22:00:21.533Z,0.86
2023-01-20T22:02:50.696Z,0.82
2023-01-20T22:05:20.280Z,0.83
2023-01-20T22:07:49.504Z,0.82
2023-01-20T22:10:18.176Z,0.81
2023-01-20T22:12:47.951Z,0.76
2023-01-20T22:15:17.190Z,0.69
2023-01-20T22:17:48.315Z,0.62
2023-01-20T22:20:17.496Z,0.57
2023-01-20T22:22:48.050Z,0.55
2023-01-20T22:25:16.636Z,0.49
2023-01-20T22:27:48.464Z,0.44
2023-01-20T22:30:17.650Z,0.40
2023-01-20T22:32:46.979Z,0.35
2023-01-20T22:35:16.002Z,0.30
2023-01-20T22:37:44.579Z,0.28
2023-01-20T22:40:13.263Z,0.21
2023-01-20T22:42:41.966Z,0.16
2023-01-20T22:45:11.004Z,0.12
2023-01-20T22:47:39.866Z,0.09
2023-01-20T22:50:09.258Z,0.08
2023-01-20T22:52:38.700Z,0.07
2023-01-20T22:55:08.409Z,0.08
2023-01-20T22:57:37.299Z,0.10
2023-01-20T23:00:08.355Z,0.10
2023-01-20T23:02:39.275Z,0.09
2023-01-20T23:05:09.310Z,0.09
2023-01-20T23:07:38.909Z,0.02
2023-01-20T23:10:09.147Z,0.08
2023-01-20T23:12:37.815Z,0.07
2023-01-20T23:15:08.013Z,0.10
2023-01-20T23:17:40.023Z,0.12
2023-01-20T23:20:11.939Z,0.11
2023-01-20T23:22:44.934Z,0.09
2023-01-20T23:25:18.593Z,0.06
2023-01-20T23:27:49.404Z,-0.02
2023-01-20T23:30:20.482Z,0.04
2023-01-20T23:32:51.783Z,0.04
2023-01-20T23:35:22.389Z,0.08
2023-01-20T23:37:51.055Z,0.06
2023-01-20T23:40:23.329Z,0.06
2023-01-20T23:42:52.024Z,0.07
2023-01-20T23:45:20.400Z,0.10
2023-01-20T23:47:48.578Z,0.10
2023-01-20T23:50:17.597Z,0.14
2023-01-20T23:52:46.247Z,0.17
2023-01-20T23:55:14.851Z,0.18
2023-01-20T23:57:43.213Z,0.18
